createdAt,value
2023-02-25T12:04:48.086Z,78.47
2023-02-25T12:19:58.934Z,85.40
2023-02-25T12:35:24.906Z,115.10
2023-02-25T12:50:35.632Z,41.97
2023-02-25T13:05:58.932Z,31.33
2023-02-25T13:21:22.998Z,35.30
2023-02-25T13:36:30.606Z,40.87
2023-02-25T13:51:57.229Z,29.57
2023-02-25T14:07:26.232Z,24.03
2023-02-25T14:22:40.302Z,32.00
2023-02-25T14:37:53.957Z,35.87
2023-02-25T14:53:21.361Z,35.67
2023-02-25T15:08:55.483Z,31.80
2023-02-25T15:23:57.928Z,31.33
2023-02-25T15:38:59.807Z,38.37
2023-02-25T15:54:02.282Z,34.53
2023-02-25T16:09:14.934Z,36.07
2023-02-25T16:24:18.493Z,33.63
2023-02-25T16:39:23.715Z,32.40
2023-02-25T16:54:31.525Z,25.90
2023-02-25T17:09:33.694Z,26.27
2023-02-25T17:24:35.477Z,24.90
2023-02-25T17:39:39.718Z,21.77
2023-02-25T17:54:47.665Z,21.77
2023-02-25T18:09:49.722Z,21.30
2023-02-25T18:24:54.657Z,23.00
2023-02-25T18:39:56.304Z,23.20
2023-02-25T18:54:57.943Z,21.77
2023-02-25T19:10:00.745Z,21.07
2023-02-25T19:25:02.376Z,14.80
2023-02-25T19:40:12.525Z,22.47
2023-02-25T19:55:14.837Z,20.93
2023-02-25T20:10:17.350Z,25.60
2023-02-25T20:25:19.373Z,19.23
2023-02-25T20:40:21.311Z,22.77
2023-02-25T20:55:23.623Z,20.23
2023-02-25T21:10:25.274Z,19.27
2023-02-25T21:25:27.102Z,18.53
2023-02-25T21:40:28.747Z,24.90
2023-02-25T21:55:30.565Z,17.80
2023-02-25T22:10:36.021Z,22.00
2023-02-25T22:25:37.655Z,21.77
2023-02-25T22:40:41.102Z,25.30
2023-02-25T22:55:43.240Z,20.50
2023-02-25T23:10:45.281Z,19.23
2023-02-25T23:25:54.762Z,21.33
2023-02-25T23:41:00.155Z,19.30
2023-02-25T23:56:07.867Z,20.40
